sensor_id;sensor_type;location;lat;lon;timestamp;P1;durP1;ratioP1;P2;durP2;ratioP2
23747;SDS011;12054;53.662;10.126;2022-09-29T00:01:52;18.55;;;13.45;;
23747;SDS011;12054;53.662;10.126;2022-09-29T00:04:18;19.50;;;12.70;;
23747;SDS011;12054;53.662;10.126;2022-09-29T00:06:44;20.55;;;13.40;;
23747;SDS011;12054;53.662;10.126;2022-09-29T00:09:09;20.95;;;12.40;;
23747;SDS011;12054;53.662;10.126;2022-09-29T00:11:35;19.30;;;13.07;;
23747;SDS011;12054;53.662;10.126;2022-09-29T00:14:00;19.63;;;12.73;;
23747;SDS011;12054;53.662;10.126;2022-09-29T00:16:26;19.17;;;12.35;;
23747;SDS011;12054;53.662;10.126;2022-09-29T00:18:54;18.17;;;11.55;;
23747;SDS011;12054;53.662;10.126;2022-09-29T00:21:21;18.25;;;11.50;;
23747;SDS011;12054;53.662;10.126;2022-09-29T00:23:47;16.00;;;11.40;;
23747;SDS011;12054;53.662;10.126;2022-09-29T00:26:14;16.95;;;11.32;;
23747;SDS011;12054;53.662;10.126;2022-09-29T00:28:45;16.23;;;10.80;;
23747;SDS011;12054;53.662;10.126;2022-09-29T00:31:12;16.88;;;10.77;;
23747;SDS011;12054;53.662;10.126;2022-09-29T00:33:38;17.58;;;11.77;;
23747;SDS011;12054;53.662;10.126;2022-09-29T00:36:05;17.92;;;11.73;;
23747;SDS011;12054;53.662;10.126;2022-09-29T00:38:33;17.88;;;11.38;;
23747;SDS011;12054;53.662;10.126;2022-09-29T00:40:59;18.63;;;12.18;;
23747;SDS011;12054;53.662;10.126;2022-09-29T00:46:12;16.00;;;11.48;;
23747;SDS011;12054;53.662;10.126;2022-09-29T00:48:39;18.75;;;11.70;;
23747;SDS011;12054;53.662;10.126;2022-09-29T00:51:05;16.98;;;11.30;;
23747;SDS011;12054;53.662;10.126;2022-09-29T00:53:32;18.27;;;11.35;;
23747;SDS011;12054;53.662;10.126;2022-09-29T00:56:00;16.63;;;10.52;;
23747;SDS011;12054;53.662;10.126;2022-09-29T01:01:05;17.75;;;10.85;;
23747;SDS011;12054;53.662;10.126;2022-09-29T01:03:32;15.75;;;10.38;;
23747;SDS011;12054;53.662;10.126;2022-09-29T01:06:09;17.10;;;11.07;;
23747;SDS011;12054;53.662;10.126;2022-09-29T01:08:40;15.98;;;11.00;;
23747;SDS011;12054;53.662;10.126;2022-09-29T01:11:09;17.60;;;10.25;;
23747;SDS011;12054;53.662;10.126;2022-09-29T01:13:36;16.00;;;11.18;;
23747;SDS011;12054;53.662;10.126;2022-09-29T01:16:02;16.25;;;11.30;;
23747;SDS011;12054;53.662;10.126;2022-09-29T01:18:27;18.67;;;11.57;;
23747;SDS011;12054;53.662;10.126;2022-09-29T01:32:32;17.30;;;11.20;;
23747;SDS011;12054;53.662;10.126;2022-09-29T01:35:08;17.63;;;11.50;;
23747;SDS011;12054;53.662;10.126;2022-09-29T01:40:15;17.38;;;11.68;;
23747;SDS011;12054;53.662;10.126;2022-09-29T01:45:25;18.83;;;11.95;;
23747;SDS011;12054;53.662;10.126;2022-09-29T01:48:01;17.17;;;11.13;;
23747;SDS011;12054;53.662;10.126;2022-09-29T01:50:55;17.00;;;11.00;;
23747;SDS011;12054;53.662;10.126;2022-09-29T01:53:28;16.20;;;11.00;;
23747;SDS011;12054;53.662;10.126;2022-09-29T01:56:00;17.00;;;11.48;;
23747;SDS011;12054;53.662;10.126;2022-09-29T01:58:32;15.25;;;10.43;;
23747;SDS011;12054;53.662;10.126;2022-09-29T02:01:30;15.27;;;10.15;;
23747;SDS011;12054;53.662;10.126;2022-09-29T02:04:01;16.10;;;10.48;;
23747;SDS011;12054;53.662;10.126;2022-09-29T02:06:31;15.40;;;10.50;;
23747;SDS011;12054;53.662;10.126;2022-09-29T02:09:02;16.70;;;10.70;;
23747;SDS011;12054;53.662;10.126;2022-09-29T02:11:32;15.93;;;10.43;;
23747;SDS011;12054;53.662;10.126;2022-09-29T02:14:13;15.07;;;10.15;;
23747;SDS011;12054;53.662;10.126;2022-09-29T02:16:46;22.00;;;10.88;;
23747;SDS011;12054;53.662;10.126;2022-09-29T02:19:18;16.38;;;10.88;;
23747;SDS011;12054;53.662;10.126;2022-09-29T02:21:47;14.43;;;10.30;;
23747;SDS011;12054;53.662;10.126;2022-09-29T02:24:12;12.77;;;9.40;;
23747;SDS011;12054;53.662;10.126;2022-09-29T02:26:38;16.00;;;9.88;;
23747;SDS011;12054;53.662;10.126;2022-09-29T02:29:05;14.88;;;9.75;;
23747;SDS011;12054;53.662;10.126;2022-09-29T02:31:33;14.07;;;9.63;;
23747;SDS011;12054;53.662;10.126;2022-09-29T02:34:01;14.95;;;10.05;;
23747;SDS011;12054;53.662;10.126;2022-09-29T02:39:10;14.68;;;9.13;;
23747;SDS011;12054;53.662;10.126;2022-09-29T02:44:39;14.77;;;9.80;;
23747;SDS011;12054;53.662;10.126;2022-09-29T02:47:23;14.48;;;8.90;;
23747;SDS011;12054;53.662;10.126;2022-09-29T02:50:03;13.15;;;9.65;;
23747;SDS011;12054;53.662;10.126;2022-09-29T02:52:53;14.80;;;10.13;;
23747;SDS011;12054;53.662;10.126;2022-09-29T03:01:11;14.48;;;9.55;;
23747;SDS011;12054;53.662;10.126;2022-09-29T03:03:38;14.52;;;10.02;;
23747;SDS011;12054;53.662;10.126;2022-09-29T03:06:03;13.27;;;8.90;;
23747;SDS011;12054;53.662;10.126;2022-09-29T03:08:29;15.43;;;10.25;;
23747;SDS011;12054;53.662;10.126;2022-09-29T03:10:56;13.02;;;9.18;;
23747;SDS011;12054;53.662;10.126;2022-09-29T03:13:21;17.98;;;9.40;;
23747;SDS011;12054;53.662;10.126;2022-09-29T03:15:47;14.13;;;9.82;;
23747;SDS011;12054;53.662;10.126;2022-09-29T03:18:12;15.70;;;9.43;;
23747;SDS011;12054;53.662;10.126;2022-09-29T03:20:38;14.65;;;9.20;;
23747;SDS011;12054;53.662;10.126;2022-09-29T03:23:04;17.42;;;9.43;;
23747;SDS011;12054;53.662;10.126;2022-09-29T03:25:29;15.82;;;9.73;;
23747;SDS011;12054;53.662;10.126;2022-09-29T03:27:55;14.60;;;9.38;;
23747;SDS011;12054;53.662;10.126;2022-09-29T03:30:20;14.50;;;9.50;;
23747;SDS011;12054;53.662;10.126;2022-09-29T03:32:47;16.23;;;9.90;;
23747;SDS011;12054;53.662;10.126;2022-09-29T03:35:12;16.75;;;9.23;;
23747;SDS011;12054;53.662;10.126;2022-09-29T03:37:38;14.50;;;9.52;;
23747;SDS011;12054;53.662;10.126;2022-09-29T03:40:04;13.57;;;9.05;;
23747;SDS011;12054;53.662;10.126;2022-09-29T03:42:30;14.85;;;9.60;;
23747;SDS011;12054;53.662;10.126;2022-09-29T03:44:56;14.45;;;9.02;;
23747;SDS011;12054;53.662;10.126;2022-09-29T03:47:22;15.65;;;9.02;;
23747;SDS011;12054;53.662;10.126;2022-09-29T03:49:47;15.15;;;9.18;;
23747;SDS011;12054;53.662;10.126;2022-09-29T03:52:13;13.32;;;9.55;;
23747;SDS011;12054;53.662;10.126;2022-09-29T03:54:38;13.70;;;8.90;;
23747;SDS011;12054;53.662;10.126;2022-09-29T03:57:04;14.13;;;9.25;;
23747;SDS011;12054;53.662;10.126;2022-09-29T03:59:30;13.32;;;9.10;;
23747;SDS011;12054;53.662;10.126;2022-09-29T04:01:55;15.07;;;9.13;;
23747;SDS011;12054;53.662;10.126;2022-09-29T04:04:21;15.23;;;9.43;;
23747;SDS011;12054;53.662;10.126;2022-09-29T04:06:46;12.68;;;8.63;;
23747;SDS011;12054;53.662;10.126;2022-09-29T04:09:12;12.85;;;8.90;;
23747;SDS011;12054;53.662;10.126;2022-09-29T04:11:38;16.63;;;9.60;;
23747;SDS011;12054;53.662;10.126;2022-09-29T04:14:03;13.40;;;8.75;;
23747;SDS011;12054;53.662;10.126;2022-09-29T04:16:29;14.20;;;8.70;;
23747;SDS011;12054;53.662;10.126;2022-09-29T04:18:55;13.60;;;8.55;;
23747;SDS011;12054;53.662;10.126;2022-09-29T04:21:21;14.50;;;8.93;;
23747;SDS011;12054;53.662;10.126;2022-09-29T04:23:46;14.18;;;8.80;;
23747;SDS011;12054;53.662;10.126;2022-09-29T04:26:12;14.80;;;8.30;;
23747;SDS011;12054;53.662;10.126;2022-09-29T04:28:38;14.63;;;9.43;;
23747;SDS011;12054;53.662;10.126;2022-09-29T04:31:03;13.52;;;8.68;;
23747;SDS011;12054;53.662;10.126;2022-09-29T04:33:29;14.18;;;9.10;;
23747;SDS011;12054;53.662;10.126;2022-09-29T04:35:56;12.75;;;8.38;;
23747;SDS011;12054;53.662;10.126;2022-09-29T04:38:22;16.17;;;9.45;;
23747;SDS011;12054;53.662;10.126;2022-09-29T04:40:48;10.27;;;7.15;;
23747;SDS011;12054;53.662;10.126;2022-09-29T04:43:13;11.15;;;8.27;;
23747;SDS011;12054;53.662;10.126;2022-09-29T04:45:39;12.40;;;8.65;;
23747;SDS011;12054;53.662;10.126;2022-09-29T04:48:05;15.45;;;9.27;;
23747;SDS011;12054;53.662;10.126;2022-09-29T04:50:31;12.05;;;8.20;;
23747;SDS011;12054;53.662;10.126;2022-09-29T04:52:57;14.68;;;9.10;;
23747;SDS011;12054;53.662;10.126;2022-09-29T04:55:23;12.80;;;8.27;;
23747;SDS011;12054;53.662;10.126;2022-09-29T04:57:49;11.93;;;8.13;;
23747;SDS011;12054;53.662;10.126;2022-09-29T05:00:15;12.65;;;8.35;;
23747;SDS011;12054;53.662;10.126;2022-09-29T05:02:41;13.82;;;8.63;;
23747;SDS011;12054;53.662;10.126;2022-09-29T05:05:07;14.65;;;8.82;;
23747;SDS011;12054;53.662;10.126;2022-09-29T05:07:34;13.10;;;8.48;;
23747;SDS011;12054;53.662;10.126;2022-09-29T05:10:01;13.63;;;9.25;;
23747;SDS011;12054;53.662;10.126;2022-09-29T05:12:27;15.13;;;8.90;;
23747;SDS011;12054;53.662;10.126;2022-09-29T05:14:53;15.50;;;9.52;;
23747;SDS011;12054;53.662;10.126;2022-09-29T05:17:18;14.57;;;8.82;;
23747;SDS011;12054;53.662;10.126;2022-09-29T05:19:44;14.80;;;8.93;;
23747;SDS011;12054;53.662;10.126;2022-09-29T05:22:09;14.15;;;8.80;;
23747;SDS011;12054;53.662;10.126;2022-09-29T05:24:35;15.50;;;8.93;;
23747;SDS011;12054;53.662;10.126;2022-09-29T05:27:01;13.20;;;8.50;;
23747;SDS011;12054;53.662;10.126;2022-09-29T05:29:26;15.95;;;9.45;;
23747;SDS011;12054;53.662;10.126;2022-09-29T05:31:52;14.32;;;8.88;;
23747;SDS011;12054;53.662;10.126;2022-09-29T05:34:17;17.63;;;9.93;;
23747;SDS011;12054;53.662;10.126;2022-09-29T05:36:43;13.23;;;8.95;;
23747;SDS011;12054;53.662;10.126;2022-09-29T05:39:09;17.15;;;9.20;;
23747;SDS011;12054;53.662;10.126;2022-09-29T05:41:35;17.20;;;9.57;;
23747;SDS011;12054;53.662;10.126;2022-09-29T05:44:00;16.70;;;9.85;;
23747;SDS011;12054;53.662;10.126;2022-09-29T05:46:26;15.60;;;9.07;;
23747;SDS011;12054;53.662;10.126;2022-09-29T05:48:52;19.33;;;11.10;;
23747;SDS011;12054;53.662;10.126;2022-09-29T05:51:19;17.30;;;10.35;;
23747;SDS011;12054;53.662;10.126;2022-09-29T05:53:46;17.15;;;11.15;;
23747;SDS011;12054;53.662;10.126;2022-09-29T05:56:13;17.60;;;10.38;;
23747;SDS011;12054;53.662;10.126;2022-09-29T05:58:44;16.00;;;10.18;;
23747;SDS011;12054;53.662;10.126;2022-09-29T06:01:11;16.85;;;9.77;;
23747;SDS011;12054;53.662;10.126;2022-09-29T06:03:38;19.17;;;10.40;;
23747;SDS011;12054;53.662;10.126;2022-09-29T06:06:14;18.17;;;10.68;;
23747;SDS011;12054;53.662;10.126;2022-09-29T06:08:42;17.20;;;10.02;;
23747;SDS011;12054;53.662;10.126;2022-09-29T06:11:09;18.40;;;10.57;;
23747;SDS011;12054;53.662;10.126;2022-09-29T06:13:37;22.42;;;10.57;;
23747;SDS011;12054;53.662;10.126;2022-09-29T06:16:07;19.38;;;10.52;;
23747;SDS011;12054;53.662;10.126;2022-09-29T06:18:33;18.42;;;10.30;;
23747;SDS011;12054;53.662;10.126;2022-09-29T06:21:00;18.77;;;11.13;;
23747;SDS011;12054;53.662;10.126;2022-09-29T06:23:27;19.15;;;10.85;;
23747;SDS011;12054;53.662;10.126;2022-09-29T06:25:56;18.38;;;10.77;;
23747;SDS011;12054;53.662;10.126;2022-09-29T06:28:23;16.17;;;10.48;;
23747;SDS011;12054;53.662;10.126;2022-09-29T06:30:49;19.48;;;11.27;;
23747;SDS011;12054;53.662;10.126;2022-09-29T06:33:14;17.42;;;10.55;;
23747;SDS011;12054;53.662;10.126;2022-09-29T06:35:46;18.98;;;11.70;;
23747;SDS011;12054;53.662;10.126;2022-09-29T06:38:31;16.38;;;10.65;;
23747;SDS011;12054;53.662;10.126;2022-09-29T06:40:57;19.33;;;11.23;;
23747;SDS011;12054;53.662;10.126;2022-09-29T06:43:23;20.70;;;11.45;;
23747;SDS011;12054;53.662;10.126;2022-09-29T06:45:48;17.75;;;11.90;;
23747;SDS011;12054;53.662;10.126;2022-09-29T06:48:14;17.88;;;10.88;;
23747;SDS011;12054;53.662;10.126;2022-09-29T06:50:39;17.52;;;11.82;;
23747;SDS011;12054;53.662;10.126;2022-09-29T06:53:05;18.92;;;11.82;;
23747;SDS011;12054;53.662;10.126;2022-09-29T06:55:30;20.67;;;12.10;;
23747;SDS011;12054;53.662;10.126;2022-09-29T06:57:56;24.08;;;12.43;;
23747;SDS011;12054;53.662;10.126;2022-09-29T07:00:21;22.48;;;12.60;;
23747;SDS011;12054;53.662;10.126;2022-09-29T07:02:47;19.80;;;12.35;;
23747;SDS011;12054;53.662;10.126;2022-09-29T07:05:12;21.90;;;12.13;;
23747;SDS011;12054;53.662;10.126;2022-09-29T07:07:38;22.48;;;12.48;;
23747;SDS011;12054;53.662;10.126;2022-09-29T07:10:04;21.95;;;12.52;;
23747;SDS011;12054;53.662;10.126;2022-09-29T07:12:29;22.60;;;12.98;;
23747;SDS011;12054;53.662;10.126;2022-09-29T07:14:55;22.20;;;13.55;;
23747;SDS011;12054;53.662;10.126;2022-09-29T07:17:20;25.45;;;13.80;;
23747;SDS011;12054;53.662;10.126;2022-09-29T07:19:46;25.48;;;14.93;;
23747;SDS011;12054;53.662;10.126;2022-09-29T07:22:11;27.98;;;15.32;;
23747;SDS011;12054;53.662;10.126;2022-09-29T07:24:37;26.52;;;14.30;;
23747;SDS011;12054;53.662;10.126;2022-09-29T07:27:02;26.38;;;14.65;;
23747;SDS011;12054;53.662;10.126;2022-09-29T07:29:28;29.85;;;15.32;;
23747;SDS011;12054;53.662;10.126;2022-09-29T07:31:57;23.80;;;14.65;;
23747;SDS011;12054;53.662;10.126;2022-09-29T07:34:23;27.80;;;15.15;;
23747;SDS011;12054;53.662;10.126;2022-09-29T07:36:48;25.98;;;14.88;;
23747;SDS011;12054;53.662;10.126;2022-09-29T07:39:15;30.08;;;16.10;;
23747;SDS011;12054;53.662;10.126;2022-09-29T07:41:41;25.52;;;15.88;;
23747;SDS011;12054;53.662;10.126;2022-09-29T07:44:07;26.95;;;16.00;;
23747;SDS011;12054;53.662;10.126;2022-09-29T07:46:32;30.65;;;17.13;;
23747;SDS011;12054;53.662;10.126;2022-09-29T07:48:58;28.77;;;17.30;;
23747;SDS011;12054;53.662;10.126;2022-09-29T07:51:23;29.73;;;16.55;;
23747;SDS011;12054;53.662;10.126;2022-09-29T07:53:49;30.73;;;16.17;;
23747;SDS011;12054;53.662;10.126;2022-09-29T07:56:16;28.02;;;15.73;;
23747;SDS011;12054;53.662;10.126;2022-09-29T07:58:43;30.35;;;17.13;;
23747;SDS011;12054;53.662;10.126;2022-09-29T08:01:10;29.85;;;17.90;;
23747;SDS011;12054;53.662;10.126;2022-09-29T08:03:37;27.98;;;17.70;;
23747;SDS011;12054;53.662;10.126;2022-09-29T08:06:05;34.33;;;18.83;;
23747;SDS011;12054;53.662;10.126;2022-09-29T08:08:31;34.15;;;19.10;;
23747;SDS011;12054;53.662;10.126;2022-09-29T08:11:04;32.55;;;18.30;;
23747;SDS011;12054;53.662;10.126;2022-09-29T08:13:32;26.60;;;16.73;;
23747;SDS011;12054;53.662;10.126;2022-09-29T08:15:59;28.40;;;17.70;;
23747;SDS011;12054;53.662;10.126;2022-09-29T08:18:25;30.90;;;17.58;;
23747;SDS011;12054;53.662;10.126;2022-09-29T08:20:51;32.05;;;19.02;;
23747;SDS011;12054;53.662;10.126;2022-09-29T08:23:18;31.70;;;17.23;;
23747;SDS011;12054;53.662;10.126;2022-09-29T08:25:44;33.35;;;18.65;;
23747;SDS011;12054;53.662;10.126;2022-09-29T08:28:11;32.00;;;19.35;;
23747;SDS011;12054;53.662;10.126;2022-09-29T08:30:36;31.10;;;19.33;;
23747;SDS011;12054;53.662;10.126;2022-09-29T08:33:02;32.58;;;18.83;;
23747;SDS011;12054;53.662;10.126;2022-09-29T08:35:31;29.95;;;17.40;;
23747;SDS011;12054;53.662;10.126;2022-09-29T08:37:56;26.67;;;16.50;;
23747;SDS011;12054;53.662;10.126;2022-09-29T08:40:22;28.67;;;16.25;;
23747;SDS011;12054;53.662;10.126;2022-09-29T08:45:36;28.35;;;17.20;;
23747;SDS011;12054;53.662;10.126;2022-09-29T08:48:09;23.35;;;15.35;;
23747;SDS011;12054;53.662;10.126;2022-09-29T08:50:45;27.02;;;15.68;;
23747;SDS011;12054;53.662;10.126;2022-09-29T08:53:16;22.60;;;15.23;;
23747;SDS011;12054;53.662;10.126;2022-09-29T08:56:02;24.30;;;15.77;;
23747;SDS011;12054;53.662;10.126;2022-09-29T08:58:29;26.48;;;17.00;;
23747;SDS011;12054;53.662;10.126;2022-09-29T09:06:02;22.42;;;14.35;;
23747;SDS011;12054;53.662;10.126;2022-09-29T09:11:46;20.23;;;13.95;;
23747;SDS011;12054;53.662;10.126;2022-09-29T09:14:36;20.70;;;13.13;;
23747;SDS011;12054;53.662;10.126;2022-09-29T09:17:24;18.83;;;13.15;;
23747;SDS011;12054;53.662;10.126;2022-09-29T09:20:01;21.25;;;14.18;;
23747;SDS011;12054;53.662;10.126;2022-09-29T09:22:52;19.60;;;13.35;;
23747;SDS011;12054;53.662;10.126;2022-09-29T09:25:32;19.38;;;12.75;;
23747;SDS011;12054;53.662;10.126;2022-09-29T09:28:11;21.52;;;13.50;;
23747;SDS011;12054;53.662;10.126;2022-09-29T09:34:02;17.02;;;12.85;;
23747;SDS011;12054;53.662;10.126;2022-09-29T09:36:30;19.67;;;13.05;;
23747;SDS011;12054;53.662;10.126;2022-09-29T09:41:38;15.88;;;11.95;;
23747;SDS011;12054;53.662;10.126;2022-09-29T09:44:11;15.98;;;11.65;;
23747;SDS011;12054;53.662;10.126;2022-09-29T09:46:42;15.70;;;10.75;;
23747;SDS011;12054;53.662;10.126;2022-09-29T09:49:28;13.90;;;10.75;;
23747;SDS011;12054;53.662;10.126;2022-09-29T09:52:17;16.42;;;11.05;;
23747;SDS011;12054;53.662;10.126;2022-09-29T09:54:50;15.40;;;10.55;;
23747;SDS011;12054;53.662;10.126;2022-09-29T09:57:23;13.80;;;10.25;;
23747;SDS011;12054;53.662;10.126;2022-09-29T10:00:13;13.70;;;9.55;;
23747;SDS011;12054;53.662;10.126;2022-09-29T10:02:47;15.63;;;10.30;;
23747;SDS011;12054;53.662;10.126;2022-09-29T10:05:16;13.32;;;9.65;;
23747;SDS011;12054;53.662;10.126;2022-09-29T10:07:43;12.45;;;9.25;;
23747;SDS011;12054;53.662;10.126;2022-09-29T10:10:28;12.55;;;9.45;;
23747;SDS011;12054;53.662;10.126;2022-09-29T10:13:02;13.25;;;9.40;;
23747;SDS011;12054;53.662;10.126;2022-09-29T10:15:32;13.77;;;9.25;;
23747;SDS011;12054;53.662;10.126;2022-09-29T10:18:08;12.25;;;9.15;;
23747;SDS011;12054;53.662;10.126;2022-09-29T10:20:38;14.60;;;9.60;;
23747;SDS011;12054;53.662;10.126;2022-09-29T10:28:22;13.35;;;9.35;;
23747;SDS011;12054;53.662;10.126;2022-09-29T10:30:50;14.50;;;9.75;;
23747;SDS011;12054;53.662;10.126;2022-09-29T10:33:18;13.57;;;9.18;;
23747;SDS011;12054;53.662;10.126;2022-09-29T10:35:47;12.18;;;9.18;;
23747;SDS011;12054;53.662;10.126;2022-09-29T10:38:17;12.23;;;9.02;;
23747;SDS011;12054;53.662;10.126;2022-09-29T10:41:06;12.13;;;8.70;;
23747;SDS011;12054;53.662;10.126;2022-09-29T10:43:37;11.90;;;8.68;;
23747;SDS011;12054;53.662;10.126;2022-09-29T10:46:05;14.52;;;9.00;;
23747;SDS011;12054;53.662;10.126;2022-09-29T10:49:36;11.75;;;8.35;;
23747;SDS011;12054;53.662;10.126;2022-09-29T10:51:37;10.43;;;8.13;;
23747;SDS011;12054;53.662;10.126;2022-09-29T10:54:07;10.40;;;8.20;;
23747;SDS011;12054;53.662;10.126;2022-09-29T10:56:34;11.25;;;7.97;;
23747;SDS011;12054;53.662;10.126;2022-09-29T10:59:01;12.32;;;7.85;;
23747;SDS011;12054;53.662;10.126;2022-09-29T11:01:28;10.13;;;8.48;;
23747;SDS011;12054;53.662;10.126;2022-09-29T11:03:57;10.52;;;8.25;;
23747;SDS011;12054;53.662;10.126;2022-09-29T11:06:34;13.60;;;8.32;;
23747;SDS011;12054;53.662;10.126;2022-09-29T11:09:03;11.27;;;8.90;;
23747;SDS011;12054;53.662;10.126;2022-09-29T11:11:30;11.80;;;9.02;;
23747;SDS011;12054;53.662;10.126;2022-09-29T11:14:03;12.70;;;8.77;;
23747;SDS011;12054;53.662;10.126;2022-09-29T11:16:33;14.55;;;8.80;;
23747;SDS011;12054;53.662;10.126;2022-09-29T11:27:52;13.77;;;9.52;;
23747;SDS011;12054;53.662;10.126;2022-09-29T11:30:24;13.82;;;9.60;;
23747;SDS011;12054;53.662;10.126;2022-09-29T11:35:31;11.40;;;9.38;;
23747;SDS011;12054;53.662;10.126;2022-09-29T11:43:50;12.23;;;8.88;;
23747;SDS011;12054;53.662;10.126;2022-09-29T11:52:15;13.05;;;9.55;;
23747;SDS011;12054;53.662;10.126;2022-09-29T12:06:24;11.35;;;8.35;;
23747;SDS011;12054;53.662;10.126;2022-09-29T12:09:17;10.38;;;7.63;;
23747;SDS011;12054;53.662;10.126;2022-09-29T12:11:59;10.68;;;7.32;;
23747;SDS011;12054;53.662;10.126;2022-09-29T12:17:40;9.70;;;7.03;;
23747;SDS011;12054;53.662;10.126;2022-09-29T12:20:19;9.93;;;7.22;;
23747;SDS011;12054;53.662;10.126;2022-09-29T12:23:08;9.45;;;7.07;;
23747;SDS011;12054;53.662;10.126;2022-09-29T12:25:38;7.57;;;6.50;;
23747;SDS011;12054;53.662;10.126;2022-09-29T12:28:20;9.68;;;6.90;;
23747;SDS011;12054;53.662;10.126;2022-09-29T12:30:56;7.85;;;6.07;;
23747;SDS011;12054;53.662;10.126;2022-09-29T12:34:25;8.13;;;6.53;;
23747;SDS011;12054;53.662;10.126;2022-09-29T12:36:55;9.25;;;6.70;;
23747;SDS011;12054;53.662;10.126;2022-09-29T12:39:45;8.65;;;6.55;;
23747;SDS011;12054;53.662;10.126;2022-09-29T12:42:25;8.55;;;6.35;;
23747;SDS011;12054;53.662;10.126;2022-09-29T12:45:14;8.85;;;5.68;;
23747;SDS011;12054;53.662;10.126;2022-09-29T12:48:18;8.27;;;6.07;;
23747;SDS011;12054;53.662;10.126;2022-09-29T12:51:00;8.70;;;6.32;;
23747;SDS011;12054;53.662;10.126;2022-09-29T12:53:58;7.35;;;5.43;;
23747;SDS011;12054;53.662;10.126;2022-09-29T12:56:50;7.47;;;5.53;;
23747;SDS011;12054;53.662;10.126;2022-09-29T12:59:36;7.55;;;5.50;;
23747;SDS011;12054;53.662;10.126;2022-09-29T13:19:20;5.30;;;4.63;;
23747;SDS011;12054;53.662;10.126;2022-09-29T13:22:25;6.60;;;4.95;;
23747;SDS011;12054;53.662;10.126;2022-09-29T13:27:46;5.63;;;5.03;;
23747;SDS011;12054;53.662;10.126;2022-09-29T13:33:12;6.80;;;4.75;;
23747;SDS011;12054;53.662;10.126;2022-09-29T13:35:45;7.90;;;5.47;;
23747;SDS011;12054;53.662;10.126;2022-09-29T13:38:14;7.05;;;6.35;;
23747;SDS011;12054;53.662;10.126;2022-09-29T13:41:07;8.55;;;5.80;;
23747;SDS011;12054;53.662;10.126;2022-09-29T13:54:27;8.70;;;7.10;;
23747;SDS011;12054;53.662;10.126;2022-09-29T13:59:38;7.93;;;7.13;;
23747;SDS011;12054;53.662;10.126;2022-09-29T14:04:55;9.70;;;8.13;;
23747;SDS011;12054;53.662;10.126;2022-09-29T14:10:52;10.40;;;9.15;;
23747;SDS011;12054;53.662;10.126;2022-09-29T14:15:42;11.93;;;9.48;;
23747;SDS011;12054;53.662;10.126;2022-09-29T14:18:37;13.15;;;9.93;;
23747;SDS011;12054;53.662;10.126;2022-09-29T14:21:09;12.32;;;9.60;;
23747;SDS011;12054;53.662;10.126;2022-09-29T14:23:57;12.00;;;10.38;;
23747;SDS011;12054;53.662;10.126;2022-09-29T14:26:42;13.13;;;10.05;;
23747;SDS011;12054;53.662;10.126;2022-09-29T14:29:20;12.88;;;11.02;;
23747;SDS011;12054;53.662;10.126;2022-09-29T14:31:48;13.98;;;11.88;;
23747;SDS011;12054;53.662;10.126;2022-09-29T14:34:18;13.07;;;11.02;;
23747;SDS011;12054;53.662;10.126;2022-09-29T14:36:47;13.93;;;11.40;;
23747;SDS011;12054;53.662;10.126;2022-09-29T14:39:15;13.32;;;11.15;;
23747;SDS011;12054;53.662;10.126;2022-09-29T14:41:42;14.23;;;11.38;;
23747;SDS011;12054;53.662;10.126;2022-09-29T14:53:01;19.20;;;12.38;;
23747;SDS011;12054;53.662;10.126;2022-09-29T14:55:37;14.88;;;12.40;;
23747;SDS011;12054;53.662;10.126;2022-09-29T15:03:43;15.70;;;13.00;;
23747;SDS011;12054;53.662;10.126;2022-09-29T15:08:38;15.20;;;13.05;;
23747;SDS011;12054;53.662;10.126;2022-09-29T15:11:21;18.55;;;14.13;;
23747;SDS011;12054;53.662;10.126;2022-09-29T15:13:51;15.65;;;12.80;;
23747;SDS011;12054;53.662;10.126;2022-09-29T15:19:19;16.65;;;12.85;;
23747;SDS011;12054;53.662;10.126;2022-09-29T15:22:13;16.17;;;12.80;;
23747;SDS011;12054;53.662;10.126;2022-09-29T15:27:39;16.65;;;12.70;;
23747;SDS011;12054;53.662;10.126;2022-09-29T15:30:10;15.80;;;12.93;;
23747;SDS011;12054;53.662;10.126;2022-09-29T15:32:40;16.65;;;13.40;;
23747;SDS011;12054;53.662;10.126;2022-09-29T15:35:07;17.63;;;13.68;;
23747;SDS011;12054;53.662;10.126;2022-09-29T15:37:54;19.63;;;14.65;;
23747;SDS011;12054;53.662;10.126;2022-09-29T15:40:23;16.08;;;13.15;;
23747;SDS011;12054;53.662;10.126;2022-09-29T15:42:50;16.48;;;12.68;;
23747;SDS011;12054;53.662;10.126;2022-09-29T15:45:19;17.40;;;13.50;;
23747;SDS011;12054;53.662;10.126;2022-09-29T15:47:59;17.92;;;13.70;;
23747;SDS011;12054;53.662;10.126;2022-09-29T15:50:27;18.90;;;13.75;;
23747;SDS011;12054;53.662;10.126;2022-09-29T15:52:57;17.80;;;13.02;;
23747;SDS011;12054;53.662;10.126;2022-09-29T15:55:27;18.30;;;14.32;;
23747;SDS011;12054;53.662;10.126;2022-09-29T15:57:54;18.85;;;13.77;;
23747;SDS011;12054;53.662;10.126;2022-09-29T16:02:57;17.52;;;13.75;;
23747;SDS011;12054;53.662;10.126;2022-09-29T16:05:42;18.08;;;14.57;;
23747;SDS011;12054;53.662;10.126;2022-09-29T16:08:22;19.67;;;13.90;;
23747;SDS011;12054;53.662;10.126;2022-09-29T16:13:20;18.35;;;14.68;;
23747;SDS011;12054;53.662;10.126;2022-09-29T16:15:48;22.02;;;14.63;;
23747;SDS011;12054;53.662;10.126;2022-09-29T16:18:19;20.40;;;15.10;;
23747;SDS011;12054;53.662;10.126;2022-09-29T16:21:03;22.48;;;15.25;;
23747;SDS011;12054;53.662;10.126;2022-09-29T16:23:48;21.40;;;15.07;;
23747;SDS011;12054;53.662;10.126;2022-09-29T16:26:38;19.55;;;15.20;;
23747;SDS011;12054;53.662;10.126;2022-09-29T16:31:38;18.48;;;14.40;;
23747;SDS011;12054;53.662;10.126;2022-09-29T16:36:47;19.73;;;14.25;;
23747;SDS011;12054;53.662;10.126;2022-09-29T16:39:15;16.42;;;12.68;;
23747;SDS011;12054;53.662;10.126;2022-09-29T16:41:46;18.88;;;13.50;;
23747;SDS011;12054;53.662;10.126;2022-09-29T16:44:14;18.58;;;12.88;;
23747;SDS011;12054;53.662;10.126;2022-09-29T16:46:51;16.35;;;12.40;;
23747;SDS011;12054;53.662;10.126;2022-09-29T16:52:01;16.80;;;12.15;;
23747;SDS011;12054;53.662;10.126;2022-09-29T16:54:40;18.33;;;13.23;;
23747;SDS011;12054;53.662;10.126;2022-09-29T16:57:21;15.50;;;12.18;;
23747;SDS011;12054;53.662;10.126;2022-09-29T16:59:59;25.13;;;16.38;;
23747;SDS011;12054;53.662;10.126;2022-09-29T17:02:29;25.15;;;16.55;;
23747;SDS011;12054;53.662;10.126;2022-09-29T17:04:55;20.73;;;14.68;;
23747;SDS011;12054;53.662;10.126;2022-09-29T17:07:22;17.17;;;13.32;;
23747;SDS011;12054;53.662;10.126;2022-09-29T17:09:50;17.67;;;13.70;;
23747;SDS011;12054;53.662;10.126;2022-09-29T17:12:19;15.80;;;12.80;;
23747;SDS011;12054;53.662;10.126;2022-09-29T17:14:45;18.50;;;13.63;;
23747;SDS011;12054;53.662;10.126;2022-09-29T17:17:16;23.92;;;16.90;;
23747;SDS011;12054;53.662;10.126;2022-09-29T17:19:49;25.42;;;15.60;;
23747;SDS011;12054;53.662;10.126;2022-09-29T17:22:27;22.80;;;15.95;;
23747;SDS011;12054;53.662;10.126;2022-09-29T17:24:53;18.13;;;13.95;;
23747;SDS011;12054;53.662;10.126;2022-09-29T17:27:19;20.02;;;13.48;;
23747;SDS011;12054;53.662;10.126;2022-09-29T17:30:03;18.42;;;12.57;;
23747;SDS011;12054;53.662;10.126;2022-09-29T17:32:30;15.77;;;12.63;;